Etusivu
METAR-TAF:

METAR-TAF

Lentoasemat :

Philip Billard Municipal Airport

Topeka, Kansas, Yhdysvallat

Leveyspiiri: 39-04-21N, Pituuspiiri: 095-37-33W, korkeus merenpinnasta: 268 m

Tämänhetkinen sää

Tämä raportti tehtiin 42 minuuttia sitten, kello 17.53 UTC
Tuuli 4 kn etelästä/lounaasta
Lämpötila -6°C
Kosteus 45%
Ilmanpaine 1036 hPa
Näkyvyys: 16.1 km
selkeää

METAR: KTOP 121753Z 20004KT 10SM CLR M06/M16 A3058 RMK AO2 SLP370 T10561156 11050 21133 58026

Aika: 12:35 (18:35 UTC)

Sääennuste

Tämä raportti tehtiin 1 tunti ja 0 minuuttia sitten, kello 17.35 UTC
Ennuste voimassa 12. päivästä klo 18 UTC - 13. päivään klo 18 UTC
Tuuli 8 kn etelästä
Näkyvyys: 10 km
selkeää
From 13. päivästä klo 0500 UTC
Tuuli 10 kn etelästä
Näkyvyys: 10 km
selkeää
From 13. päivästä klo 1500 UTC
Tuuli 12 kn etelästä/lounaasta
Näkyvyys: 10 km
Muutamia pilviä 25000 ft:n korkeudessa

TAF: KTOP 121735Z 1218/1318 18008KT P6SM SKC FM130500 19010KT P6SM SKC WS015/22045KT FM131500 20012KT P6SM FEW250

Säähavainnot ja -ennusteet yli 4000 lentoasemalta (METAR- ja TAF-raportit).

Käytössä olevat sääasemat on merkitty karttaan keltaisilla ja punaisilla pisteillä.

Aseta hiiri pisteen päälle nähdäksesi sääaseman nimen.

Klikkaa sitten nähdäksesi säähavainnot ja -ennusteet.

Kartan vaihtaminen: klikkaa mustalla rastilla varustettuja vihreitä pisteitä, niin voit zoomata sisään; viivalla varustettua vihreää pistettä, niin voit zoomata ulos tai vihreitä nuolia, niin pääset viereisille kartoille.


METAR-TAF: